sensor_id;sensor_type;location;lat;lon;timestamp;P1;durP1;ratioP1;P2;durP2;ratioP2
22064;SDS011;11197;53.110;8.468;2022-08-25T00:01:34;4.93;;;3.00;;
22064;SDS011;11197;53.110;8.468;2022-08-25T00:04:07;4.43;;;2.83;;
22064;SDS011;11197;53.110;8.468;2022-08-25T00:06:35;4.28;;;2.58;;
22064;SDS011;11197;53.110;8.468;2022-08-25T00:09:02;6.53;;;2.92;;
22064;SDS011;11197;53.110;8.468;2022-08-25T00:11:30;4.43;;;2.80;;
22064;SDS011;11197;53.110;8.468;2022-08-25T00:13:59;4.60;;;2.90;;
22064;SDS011;11197;53.110;8.468;2022-08-25T00:16:29;4.53;;;2.78;;
22064;SDS011;11197;53.110;8.468;2022-08-25T00:18:59;6.35;;;3.10;;
22064;SDS011;11197;53.110;8.468;2022-08-25T00:21:29;5.43;;;3.00;;
22064;SDS011;11197;53.110;8.468;2022-08-25T00:23:56;4.13;;;2.70;;
22064;SDS011;11197;53.110;8.468;2022-08-25T00:26:23;5.88;;;2.97;;
22064;SDS011;11197;53.110;8.468;2022-08-25T00:28:50;4.75;;;2.97;;
22064;SDS011;11197;53.110;8.468;2022-08-25T00:31:18;5.68;;;3.20;;
22064;SDS011;11197;53.110;8.468;2022-08-25T00:33:50;5.57;;;2.92;;
22064;SDS011;11197;53.110;8.468;2022-08-25T00:36:18;4.60;;;2.80;;
22064;SDS011;11197;53.110;8.468;2022-08-25T00:38:45;3.85;;;2.90;;
22064;SDS011;11197;53.110;8.468;2022-08-25T00:41:14;5.45;;;2.90;;
22064;SDS011;11197;53.110;8.468;2022-08-25T00:43:46;5.63;;;2.90;;
22064;SDS011;11197;53.110;8.468;2022-08-25T00:46:17;4.78;;;3.20;;
22064;SDS011;11197;53.110;8.468;2022-08-25T00:48:46;6.43;;;3.30;;
22064;SDS011;11197;53.110;8.468;2022-08-25T00:53:49;4.18;;;3.22;;
22064;SDS011;11197;53.110;8.468;2022-08-25T00:56:15;5.40;;;3.30;;
22064;SDS011;11197;53.110;8.468;2022-08-25T00:58:43;5.07;;;3.33;;
22064;SDS011;11197;53.110;8.468;2022-08-25T01:01:09;4.57;;;3.30;;
22064;SDS011;11197;53.110;8.468;2022-08-25T01:03:35;6.70;;;3.35;;
22064;SDS011;11197;53.110;8.468;2022-08-25T01:06:02;5.03;;;3.00;;
22064;SDS011;11197;53.110;8.468;2022-08-25T01:08:29;4.97;;;3.28;;
22064;SDS011;11197;53.110;8.468;2022-08-25T01:10:58;5.68;;;3.35;;
22064;SDS011;11197;53.110;8.468;2022-08-25T01:16:09;7.53;;;3.28;;
22064;SDS011;11197;53.110;8.468;2022-08-25T01:18:48;4.35;;;3.17;;
22064;SDS011;11197;53.110;8.468;2022-08-25T01:21:17;4.88;;;3.00;;
22064;SDS011;11197;53.110;8.468;2022-08-25T01:23:45;5.65;;;3.15;;
22064;SDS011;11197;53.110;8.468;2022-08-25T01:26:20;5.78;;;3.80;;
22064;SDS011;11197;53.110;8.468;2022-08-25T01:28:50;5.55;;;3.50;;
22064;SDS011;11197;53.110;8.468;2022-08-25T01:34:33;5.82;;;3.40;;
22064;SDS011;11197;53.110;8.468;2022-08-25T01:37:01;5.18;;;3.40;;
22064;SDS011;11197;53.110;8.468;2022-08-25T01:39:46;5.72;;;3.40;;
22064;SDS011;11197;53.110;8.468;2022-08-25T01:45:31;5.38;;;4.00;;
22064;SDS011;11197;53.110;8.468;2022-08-25T01:48:02;5.60;;;3.45;;
22064;SDS011;11197;53.110;8.468;2022-08-25T01:50:32;6.40;;;3.95;;
22064;SDS011;11197;53.110;8.468;2022-08-25T01:55:55;5.38;;;3.90;;
22064;SDS011;11197;53.110;8.468;2022-08-25T02:01:42;6.68;;;3.67;;
22064;SDS011;11197;53.110;8.468;2022-08-25T02:04:08;6.85;;;4.05;;
22064;SDS011;11197;53.110;8.468;2022-08-25T02:06:34;10.18;;;4.15;;
22064;SDS011;11197;53.110;8.468;2022-08-25T02:09:02;6.25;;;3.70;;
22064;SDS011;11197;53.110;8.468;2022-08-25T02:11:30;6.13;;;3.78;;
22064;SDS011;11197;53.110;8.468;2022-08-25T02:13:58;7.75;;;4.10;;
22064;SDS011;11197;53.110;8.468;2022-08-25T02:20:06;6.75;;;3.80;;
22064;SDS011;11197;53.110;8.468;2022-08-25T02:22:33;9.60;;;4.05;;
22064;SDS011;11197;53.110;8.468;2022-08-25T02:24:59;6.28;;;4.18;;
22064;SDS011;11197;53.110;8.468;2022-08-25T02:27:25;5.50;;;4.07;;
22064;SDS011;11197;53.110;8.468;2022-08-25T02:29:52;7.75;;;4.20;;
22064;SDS011;11197;53.110;8.468;2022-08-25T02:32:18;7.65;;;4.00;;
22064;SDS011;11197;53.110;8.468;2022-08-25T02:34:44;7.72;;;4.20;;
22064;SDS011;11197;53.110;8.468;2022-08-25T02:37:10;6.20;;;4.30;;
22064;SDS011;11197;53.110;8.468;2022-08-25T02:39:36;7.28;;;4.32;;
22064;SDS011;11197;53.110;8.468;2022-08-25T02:42:03;8.27;;;4.13;;
22064;SDS011;11197;53.110;8.468;2022-08-25T02:44:30;8.25;;;4.43;;
22064;SDS011;11197;53.110;8.468;2022-08-25T02:46:56;5.68;;;4.20;;
22064;SDS011;11197;53.110;8.468;2022-08-25T02:49:22;6.25;;;4.47;;
22064;SDS011;11197;53.110;8.468;2022-08-25T02:51:48;6.55;;;4.53;;
22064;SDS011;11197;53.110;8.468;2022-08-25T02:54:14;10.18;;;4.65;;
22064;SDS011;11197;53.110;8.468;2022-08-25T02:56:40;6.75;;;4.55;;
22064;SDS011;11197;53.110;8.468;2022-08-25T02:59:07;9.55;;;4.88;;
22064;SDS011;11197;53.110;8.468;2022-08-25T03:01:33;5.80;;;4.30;;
22064;SDS011;11197;53.110;8.468;2022-08-25T03:04:01;8.23;;;4.85;;
22064;SDS011;11197;53.110;8.468;2022-08-25T03:06:28;11.13;;;5.38;;
22064;SDS011;11197;53.110;8.468;2022-08-25T03:08:54;8.05;;;4.55;;
22064;SDS011;11197;53.110;8.468;2022-08-25T03:11:20;8.90;;;5.00;;
22064;SDS011;11197;53.110;8.468;2022-08-25T03:13:47;8.45;;;4.95;;
22064;SDS011;11197;53.110;8.468;2022-08-25T03:16:16;6.60;;;4.45;;
22064;SDS011;11197;53.110;8.468;2022-08-25T03:18:43;8.40;;;4.97;;
22064;SDS011;11197;53.110;8.468;2022-08-25T03:21:10;9.55;;;5.22;;
22064;SDS011;11197;53.110;8.468;2022-08-25T03:23:37;7.10;;;5.40;;
22064;SDS011;11197;53.110;8.468;2022-08-25T03:26:06;7.22;;;4.68;;
22064;SDS011;11197;53.110;8.468;2022-08-25T03:28:50;7.13;;;5.13;;
22064;SDS011;11197;53.110;8.468;2022-08-25T03:31:16;9.95;;;5.60;;
22064;SDS011;11197;53.110;8.468;2022-08-25T03:33:43;7.20;;;5.10;;
22064;SDS011;11197;53.110;8.468;2022-08-25T03:36:09;8.05;;;5.03;;
22064;SDS011;11197;53.110;8.468;2022-08-25T03:38:39;9.50;;;5.18;;
22064;SDS011;11197;53.110;8.468;2022-08-25T03:41:12;7.60;;;5.05;;
22064;SDS011;11197;53.110;8.468;2022-08-25T03:43:44;6.90;;;4.90;;
22064;SDS011;11197;53.110;8.468;2022-08-25T03:46:17;9.15;;;5.15;;
22064;SDS011;11197;53.110;8.468;2022-08-25T03:48:45;7.47;;;4.95;;
22064;SDS011;11197;53.110;8.468;2022-08-25T03:51:18;8.23;;;5.47;;
22064;SDS011;11197;53.110;8.468;2022-08-25T03:53:49;10.60;;;5.72;;
22064;SDS011;11197;53.110;8.468;2022-08-25T03:56:15;6.80;;;4.80;;
22064;SDS011;11197;53.110;8.468;2022-08-25T03:58:43;7.75;;;5.57;;
22064;SDS011;11197;53.110;8.468;2022-08-25T04:01:09;4.00;;;2.85;;
22064;SDS011;11197;53.110;8.468;2022-08-25T04:03:35;6.13;;;4.28;;
22064;SDS011;11197;53.110;8.468;2022-08-25T04:06:03;8.50;;;5.00;;
22064;SDS011;11197;53.110;8.468;2022-08-25T04:08:30;12.30;;;5.43;;
22064;SDS011;11197;53.110;8.468;2022-08-25T04:10:56;7.22;;;5.10;;
22064;SDS011;11197;53.110;8.468;2022-08-25T04:13:22;7.10;;;4.78;;
22064;SDS011;11197;53.110;8.468;2022-08-25T04:15:48;8.75;;;4.88;;
22064;SDS011;11197;53.110;8.468;2022-08-25T04:18:14;9.13;;;4.90;;
22064;SDS011;11197;53.110;8.468;2022-08-25T04:20:41;9.57;;;4.90;;
22064;SDS011;11197;53.110;8.468;2022-08-25T04:23:08;9.20;;;4.95;;
22064;SDS011;11197;53.110;8.468;2022-08-25T04:25:38;7.15;;;5.18;;
22064;SDS011;11197;53.110;8.468;2022-08-25T04:28:08;7.53;;;4.97;;
22064;SDS011;11197;53.110;8.468;2022-08-25T04:30:35;8.30;;;5.30;;
22064;SDS011;11197;53.110;8.468;2022-08-25T04:33:01;8.57;;;5.20;;
22064;SDS011;11197;53.110;8.468;2022-08-25T04:35:27;7.68;;;5.13;;
22064;SDS011;11197;53.110;8.468;2022-08-25T04:37:53;6.97;;;5.18;;
22064;SDS011;11197;53.110;8.468;2022-08-25T04:40:19;8.38;;;5.03;;
22064;SDS011;11197;53.110;8.468;2022-08-25T04:42:44;8.50;;;5.20;;
22064;SDS011;11197;53.110;8.468;2022-08-25T04:45:10;6.65;;;5.65;;
22064;SDS011;11197;53.110;8.468;2022-08-25T04:47:37;7.47;;;5.60;;
22064;SDS011;11197;53.110;8.468;2022-08-25T04:50:04;7.68;;;5.47;;
22064;SDS011;11197;53.110;8.468;2022-08-25T04:52:31;8.48;;;5.22;;
22064;SDS011;11197;53.110;8.468;2022-08-25T04:54:58;10.50;;;5.63;;
22064;SDS011;11197;53.110;8.468;2022-08-25T04:57:24;8.35;;;5.32;;
22064;SDS011;11197;53.110;8.468;2022-08-25T04:59:50;7.53;;;5.53;;
22064;SDS011;11197;53.110;8.468;2022-08-25T05:02:16;8.82;;;5.50;;
22064;SDS011;11197;53.110;8.468;2022-08-25T05:04:43;7.72;;;6.05;;
22064;SDS011;11197;53.110;8.468;2022-08-25T05:07:09;9.18;;;5.88;;
22064;SDS011;11197;53.110;8.468;2022-08-25T05:09:35;7.80;;;5.90;;
22064;SDS011;11197;53.110;8.468;2022-08-25T05:12:02;6.93;;;5.88;;
22064;SDS011;11197;53.110;8.468;2022-08-25T05:14:29;8.75;;;6.07;;
22064;SDS011;11197;53.110;8.468;2022-08-25T05:16:57;9.00;;;7.20;;
22064;SDS011;11197;53.110;8.468;2022-08-25T05:19:23;8.43;;;6.65;;
22064;SDS011;11197;53.110;8.468;2022-08-25T05:21:50;8.50;;;6.63;;
22064;SDS011;11197;53.110;8.468;2022-08-25T05:24:18;13.82;;;7.18;;
22064;SDS011;11197;53.110;8.468;2022-08-25T05:26:44;8.90;;;7.03;;
22064;SDS011;11197;53.110;8.468;2022-08-25T05:29:10;8.95;;;7.22;;
22064;SDS011;11197;53.110;8.468;2022-08-25T05:31:36;10.88;;;7.00;;
22064;SDS011;11197;53.110;8.468;2022-08-25T05:34:06;11.15;;;7.53;;
22064;SDS011;11197;53.110;8.468;2022-08-25T05:36:32;10.90;;;7.63;;
22064;SDS011;11197;53.110;8.468;2022-08-25T05:38:59;10.10;;;8.48;;
22064;SDS011;11197;53.110;8.468;2022-08-25T05:41:27;11.20;;;8.57;;
22064;SDS011;11197;53.110;8.468;2022-08-25T05:43:54;12.05;;;8.52;;
22064;SDS011;11197;53.110;8.468;2022-08-25T05:46:21;10.80;;;8.32;;
22064;SDS011;11197;53.110;8.468;2022-08-25T05:48:47;11.15;;;9.30;;
22064;SDS011;11197;53.110;8.468;2022-08-25T05:51:14;15.45;;;9.57;;
22064;SDS011;11197;53.110;8.468;2022-08-25T05:53:42;13.13;;;9.23;;
22064;SDS011;11197;53.110;8.468;2022-08-25T05:56:10;12.73;;;9.45;;
22064;SDS011;11197;53.110;8.468;2022-08-25T05:58:38;14.75;;;9.35;;
22064;SDS011;11197;53.110;8.468;2022-08-25T06:01:05;14.20;;;9.35;;
22064;SDS011;11197;53.110;8.468;2022-08-25T06:03:50;12.77;;;9.20;;
22064;SDS011;11197;53.110;8.468;2022-08-25T06:06:20;18.00;;;11.45;;
22064;SDS011;11197;53.110;8.468;2022-08-25T06:08:47;13.48;;;10.10;;
22064;SDS011;11197;53.110;8.468;2022-08-25T06:11:13;15.15;;;10.15;;
22064;SDS011;11197;53.110;8.468;2022-08-25T06:13:40;15.82;;;10.75;;
22064;SDS011;11197;53.110;8.468;2022-08-25T06:16:07;17.23;;;10.85;;
22064;SDS011;11197;53.110;8.468;2022-08-25T06:18:34;14.10;;;10.65;;
22064;SDS011;11197;53.110;8.468;2022-08-25T06:21:07;14.48;;;11.38;;
22064;SDS011;11197;53.110;8.468;2022-08-25T06:23:35;16.33;;;10.75;;
22064;SDS011;11197;53.110;8.468;2022-08-25T06:26:01;21.48;;;11.50;;
22064;SDS011;11197;53.110;8.468;2022-08-25T06:28:27;17.73;;;11.55;;
22064;SDS011;11197;53.110;8.468;2022-08-25T06:30:57;17.48;;;11.40;;
22064;SDS011;11197;53.110;8.468;2022-08-25T06:33:26;16.88;;;11.43;;
22064;SDS011;11197;53.110;8.468;2022-08-25T06:35:53;17.58;;;11.93;;
22064;SDS011;11197;53.110;8.468;2022-08-25T06:38:23;16.92;;;12.05;;
22064;SDS011;11197;53.110;8.468;2022-08-25T06:40:49;18.60;;;11.85;;
22064;SDS011;11197;53.110;8.468;2022-08-25T06:43:17;17.45;;;12.75;;
22064;SDS011;11197;53.110;8.468;2022-08-25T06:45:44;17.73;;;11.20;;
22064;SDS011;11197;53.110;8.468;2022-08-25T06:48:10;18.25;;;12.95;;
22064;SDS011;11197;53.110;8.468;2022-08-25T06:50:39;15.38;;;11.98;;
22064;SDS011;11197;53.110;8.468;2022-08-25T06:53:06;18.63;;;12.38;;
22064;SDS011;11197;53.110;8.468;2022-08-25T06:55:32;18.77;;;11.95;;
22064;SDS011;11197;53.110;8.468;2022-08-25T06:58:01;15.82;;;12.95;;
22064;SDS011;11197;53.110;8.468;2022-08-25T07:00:29;17.92;;;11.95;;
22064;SDS011;11197;53.110;8.468;2022-08-25T07:02:55;16.27;;;11.85;;
22064;SDS011;11197;53.110;8.468;2022-08-25T07:05:22;17.05;;;11.95;;
22064;SDS011;11197;53.110;8.468;2022-08-25T07:07:51;14.95;;;11.50;;
22064;SDS011;11197;53.110;8.468;2022-08-25T07:10:17;16.08;;;11.82;;
22064;SDS011;11197;53.110;8.468;2022-08-25T07:12:43;16.52;;;12.10;;
22064;SDS011;11197;53.110;8.468;2022-08-25T07:15:10;14.73;;;11.38;;
22064;SDS011;11197;53.110;8.468;2022-08-25T07:17:36;14.57;;;11.40;;
22064;SDS011;11197;53.110;8.468;2022-08-25T07:20:05;16.63;;;11.10;;
22064;SDS011;11197;53.110;8.468;2022-08-25T07:22:31;19.70;;;11.40;;
22064;SDS011;11197;53.110;8.468;2022-08-25T07:24:57;17.00;;;11.73;;
22064;SDS011;11197;53.110;8.468;2022-08-25T07:27:23;17.90;;;10.95;;
22064;SDS011;11197;53.110;8.468;2022-08-25T07:29:50;15.15;;;11.15;;
22064;SDS011;11197;53.110;8.468;2022-08-25T07:32:18;15.32;;;10.68;;
22064;SDS011;11197;53.110;8.468;2022-08-25T07:34:44;14.32;;;11.13;;
22064;SDS011;11197;53.110;8.468;2022-08-25T07:37:28;16.42;;;10.98;;
22064;SDS011;11197;53.110;8.468;2022-08-25T07:39:54;15.15;;;11.00;;
22064;SDS011;11197;53.110;8.468;2022-08-25T07:42:20;14.82;;;10.40;;
22064;SDS011;11197;53.110;8.468;2022-08-25T07:44:46;15.73;;;10.13;;
22064;SDS011;11197;53.110;8.468;2022-08-25T07:47:12;14.13;;;10.48;;
22064;SDS011;11197;53.110;8.468;2022-08-25T07:49:40;13.77;;;10.30;;
22064;SDS011;11197;53.110;8.468;2022-08-25T07:52:06;14.82;;;10.00;;
22064;SDS011;11197;53.110;8.468;2022-08-25T07:54:35;14.27;;;9.73;;
22064;SDS011;11197;53.110;8.468;2022-08-25T07:57:02;17.08;;;10.20;;
22064;SDS011;11197;53.110;8.468;2022-08-25T07:59:29;16.85;;;10.13;;
22064;SDS011;11197;53.110;8.468;2022-08-25T08:01:56;19.17;;;10.50;;
22064;SDS011;11197;53.110;8.468;2022-08-25T08:04:22;15.05;;;10.68;;
22064;SDS011;11197;53.110;8.468;2022-08-25T08:06:48;14.20;;;10.40;;
22064;SDS011;11197;53.110;8.468;2022-08-25T08:09:13;13.82;;;10.02;;
22064;SDS011;11197;53.110;8.468;2022-08-25T08:11:40;12.45;;;9.63;;
22064;SDS011;11197;53.110;8.468;2022-08-25T08:14:09;13.63;;;10.13;;
22064;SDS011;11197;53.110;8.468;2022-08-25T08:16:35;16.63;;;11.07;;
22064;SDS011;11197;53.110;8.468;2022-08-25T08:19:02;16.25;;;10.02;;
22064;SDS011;11197;53.110;8.468;2022-08-25T08:21:30;12.93;;;10.27;;
22064;SDS011;11197;53.110;8.468;2022-08-25T08:23:58;14.48;;;9.65;;
22064;SDS011;11197;53.110;8.468;2022-08-25T08:26:25;16.50;;;9.52;;
22064;SDS011;11197;53.110;8.468;2022-08-25T08:28:52;13.43;;;9.45;;
22064;SDS011;11197;53.110;8.468;2022-08-25T08:31:19;13.48;;;9.40;;
22064;SDS011;11197;53.110;8.468;2022-08-25T08:33:48;14.38;;;9.40;;
22064;SDS011;11197;53.110;8.468;2022-08-25T08:36:15;21.52;;;9.77;;
22064;SDS011;11197;53.110;8.468;2022-08-25T08:38:43;16.52;;;9.77;;
22064;SDS011;11197;53.110;8.468;2022-08-25T08:47:07;13.70;;;9.38;;
22064;SDS011;11197;53.110;8.468;2022-08-25T08:52:49;15.27;;;8.90;;
22064;SDS011;11197;53.110;8.468;2022-08-25T08:55:27;11.10;;;8.88;;
22064;SDS011;11197;53.110;8.468;2022-08-25T08:58:06;14.48;;;9.25;;
22064;SDS011;11197;53.110;8.468;2022-08-25T09:00:38;14.27;;;8.40;;
22064;SDS011;11197;53.110;8.468;2022-08-25T09:03:10;11.60;;;9.05;;
22064;SDS011;11197;53.110;8.468;2022-08-25T09:05:47;13.73;;;8.35;;
22064;SDS011;11197;53.110;8.468;2022-08-25T09:08:16;14.63;;;8.90;;
22064;SDS011;11197;53.110;8.468;2022-08-25T09:13:42;11.43;;;8.50;;
22064;SDS011;11197;53.110;8.468;2022-08-25T09:16:25;14.38;;;8.55;;
22064;SDS011;11197;53.110;8.468;2022-08-25T09:19:29;13.05;;;8.38;;
22064;SDS011;11197;53.110;8.468;2022-08-25T09:22:10;10.18;;;7.70;;
22064;SDS011;11197;53.110;8.468;2022-08-25T09:30:23;11.65;;;8.60;;
22064;SDS011;11197;53.110;8.468;2022-08-25T09:32:51;17.90;;;8.30;;
22064;SDS011;11197;53.110;8.468;2022-08-25T09:35:27;12.93;;;8.23;;
22064;SDS011;11197;53.110;8.468;2022-08-25T09:38:01;13.80;;;8.55;;
22064;SDS011;11197;53.110;8.468;2022-08-25T09:40:29;14.10;;;8.00;;
22064;SDS011;11197;53.110;8.468;2022-08-25T09:42:57;11.13;;;7.78;;
22064;SDS011;11197;53.110;8.468;2022-08-25T09:45:44;10.82;;;7.40;;
22064;SDS011;11197;53.110;8.468;2022-08-25T09:48:30;13.00;;;7.75;;
22064;SDS011;11197;53.110;8.468;2022-08-25T09:51:26;12.90;;;7.53;;
22064;SDS011;11197;53.110;8.468;2022-08-25T09:56:23;11.70;;;7.07;;
22064;SDS011;11197;53.110;8.468;2022-08-25T09:58:55;11.07;;;7.30;;
22064;SDS011;11197;53.110;8.468;2022-08-25T10:01:57;11.10;;;7.00;;
22064;SDS011;11197;53.110;8.468;2022-08-25T10:04:35;10.70;;;6.68;;
22064;SDS011;11197;53.110;8.468;2022-08-25T10:07:26;13.73;;;7.03;;
22064;SDS011;11197;53.110;8.468;2022-08-25T10:10:04;16.00;;;6.65;;
22064;SDS011;11197;53.110;8.468;2022-08-25T10:12:43;12.73;;;7.15;;
22064;SDS011;11197;53.110;8.468;2022-08-25T10:17:45;11.73;;;7.18;;
22064;SDS011;11197;53.110;8.468;2022-08-25T10:20:22;11.48;;;6.70;;
22064;SDS011;11197;53.110;8.468;2022-08-25T10:22:51;11.40;;;6.50;;
22064;SDS011;11197;53.110;8.468;2022-08-25T10:25:32;12.65;;;6.60;;
22064;SDS011;11197;53.110;8.468;2022-08-25T10:36:15;10.32;;;6.53;;
22064;SDS011;11197;53.110;8.468;2022-08-25T10:41:23;9.60;;;6.78;;
22064;SDS011;11197;53.110;8.468;2022-08-25T10:50:32;9.93;;;6.15;;
22064;SDS011;11197;53.110;8.468;2022-08-25T10:56:01;10.77;;;6.35;;
22064;SDS011;11197;53.110;8.468;2022-08-25T10:58:51;9.77;;;6.00;;
22064;SDS011;11197;53.110;8.468;2022-08-25T11:04:47;11.93;;;6.43;;
22064;SDS011;11197;53.110;8.468;2022-08-25T11:12:39;10.02;;;6.05;;
22064;SDS011;11197;53.110;8.468;2022-08-25T11:17:44;12.80;;;6.68;;
22064;SDS011;11197;53.110;8.468;2022-08-25T11:20:34;8.85;;;5.72;;
22064;SDS011;11197;53.110;8.468;2022-08-25T11:25:49;8.90;;;5.90;;
22064;SDS011;11197;53.110;8.468;2022-08-25T11:28:32;10.32;;;6.32;;
22064;SDS011;11197;53.110;8.468;2022-08-25T11:31:07;10.30;;;6.00;;
22064;SDS011;11197;53.110;8.468;2022-08-25T11:33:35;9.52;;;5.97;;
22064;SDS011;11197;53.110;8.468;2022-08-25T11:36:23;9.30;;;6.32;;
22064;SDS011;11197;53.110;8.468;2022-08-25T11:39:06;9.18;;;5.55;;
22064;SDS011;11197;53.110;8.468;2022-08-25T11:50:32;9.68;;;5.22;;
22064;SDS011;11197;53.110;8.468;2022-08-25T12:00:54;8.52;;;4.97;;
22064;SDS011;11197;53.110;8.468;2022-08-25T12:14:15;11.52;;;5.20;;
22064;SDS011;11197;53.110;8.468;2022-08-25T12:27:41;8.73;;;5.18;;
22064;SDS011;11197;53.110;8.468;2022-08-25T12:30:30;9.80;;;5.00;;
22064;SDS011;11197;53.110;8.468;2022-08-25T12:35:58;8.65;;;5.40;;
22064;SDS011;11197;53.110;8.468;2022-08-25T12:41:08;8.82;;;5.28;;
22064;SDS011;11197;53.110;8.468;2022-08-25T12:43:41;10.30;;;4.80;;
22064;SDS011;11197;53.110;8.468;2022-08-25T12:57:28;8.80;;;5.18;;
22064;SDS011;11197;53.110;8.468;2022-08-25T13:00:31;8.27;;;5.70;;
22064;SDS011;11197;53.110;8.468;2022-08-25T13:11:00;7.80;;;5.15;;
22064;SDS011;11197;53.110;8.468;2022-08-25T13:16:20;8.43;;;4.90;;
22064;SDS011;11197;53.110;8.468;2022-08-25T13:18:47;10.80;;;5.15;;
22064;SDS011;11197;53.110;8.468;2022-08-25T13:23:43;7.97;;;4.50;;
22064;SDS011;11197;53.110;8.468;2022-08-25T13:26:16;7.47;;;4.60;;
22064;SDS011;11197;53.110;8.468;2022-08-25T13:28:58;8.50;;;4.28;;
22064;SDS011;11197;53.110;8.468;2022-08-25T13:31:27;6.97;;;5.00;;
22064;SDS011;11197;53.110;8.468;2022-08-25T13:33:55;9.07;;;5.35;;
22064;SDS011;11197;53.110;8.468;2022-08-25T13:36:27;12.63;;;5.57;;
22064;SDS011;11197;53.110;8.468;2022-08-25T13:39:16;8.05;;;5.22;;
22064;SDS011;11197;53.110;8.468;2022-08-25T13:41:49;8.60;;;5.07;;
22064;SDS011;11197;53.110;8.468;2022-08-25T13:44:18;12.43;;;4.97;;
22064;SDS011;11197;53.110;8.468;2022-08-25T13:46:47;9.65;;;4.80;;
22064;SDS011;11197;53.110;8.468;2022-08-25T13:49:29;8.25;;;4.60;;
22064;SDS011;11197;53.110;8.468;2022-08-25T13:51:55;8.32;;;4.80;;
22064;SDS011;11197;53.110;8.468;2022-08-25T13:54:29;9.10;;;4.95;;
22064;SDS011;11197;53.110;8.468;2022-08-25T13:57:04;8.35;;;5.18;;
22064;SDS011;11197;53.110;8.468;2022-08-25T13:59:36;8.57;;;4.53;;
22064;SDS011;11197;53.110;8.468;2022-08-25T14:02:05;7.83;;;4.80;;
22064;SDS011;11197;53.110;8.468;2022-08-25T14:07:05;9.20;;;4.85;;
22064;SDS011;11197;53.110;8.468;2022-08-25T14:09:43;9.02;;;4.70;;
22064;SDS011;11197;53.110;8.468;2022-08-25T14:12:30;6.57;;;4.72;;
22064;SDS011;11197;53.110;8.468;2022-08-25T14:15:00;7.90;;;4.70;;
22064;SDS011;11197;53.110;8.468;2022-08-25T14:17:46;9.63;;;5.00;;
22064;SDS011;11197;53.110;8.468;2022-08-25T14:20:26;10.43;;;4.90;;
22064;SDS011;11197;53.110;8.468;2022-08-25T14:22:57;7.68;;;5.00;;
22064;SDS011;11197;53.110;8.468;2022-08-25T14:25:27;10.63;;;4.68;;
22064;SDS011;11197;53.110;8.468;2022-08-25T14:27:58;8.80;;;4.30;;
22064;SDS011;11197;53.110;8.468;2022-08-25T14:30:32;9.85;;;4.68;;
22064;SDS011;11197;53.110;8.468;2022-08-25T14:33:01;5.85;;;4.45;;
22064;SDS011;11197;53.110;8.468;2022-08-25T14:35:28;11.50;;;4.72;;
22064;SDS011;11197;53.110;8.468;2022-08-25T14:37:54;10.18;;;5.03;;
22064;SDS011;11197;53.110;8.468;2022-08-25T14:40:21;8.13;;;4.80;;
22064;SDS011;11197;53.110;8.468;2022-08-25T14:42:47;10.02;;;5.00;;
22064;SDS011;11197;53.110;8.468;2022-08-25T14:45:14;12.65;;;5.35;;
22064;SDS011;11197;53.110;8.468;2022-08-25T14:47:41;5.20;;;4.32;;
22064;SDS011;11197;53.110;8.468;2022-08-25T14:50:09;8.23;;;4.68;;
22064;SDS011;11197;53.110;8.468;2022-08-25T14:52:35;12.23;;;5.03;;
22064;SDS011;11197;53.110;8.468;2022-08-25T14:55:02;10.60;;;5.13;;
22064;SDS011;11197;53.110;8.468;2022-08-25T14:57:29;9.57;;;4.90;;
22064;SDS011;11197;53.110;8.468;2022-08-25T14:59:55;8.82;;;5.10;;
22064;SDS011;11197;53.110;8.468;2022-08-25T15:02:22;8.38;;;5.00;;
22064;SDS011;11197;53.110;8.468;2022-08-25T15:04:53;8.07;;;5.10;;
22064;SDS011;11197;53.110;8.468;2022-08-25T15:07:22;10.48;;;5.22;;
22064;SDS011;11197;53.110;8.468;2022-08-25T15:10:07;10.50;;;4.88;;
22064;SDS011;11197;53.110;8.468;2022-08-25T15:12:34;11.05;;;4.70;;
22064;SDS011;11197;53.110;8.468;2022-08-25T15:15:00;7.57;;;5.00;;
22064;SDS011;11197;53.110;8.468;2022-08-25T15:17:29;9.57;;;5.30;;
22064;SDS011;11197;53.110;8.468;2022-08-25T15:19:55;11.00;;;5.03;;
22064;SDS011;11197;53.110;8.468;2022-08-25T15:22:21;11.30;;;4.95;;
22064;SDS011;11197;53.110;8.468;2022-08-25T15:24:47;9.38;;;4.90;;
22064;SDS011;11197;53.110;8.468;2022-08-25T15:27:13;10.85;;;4.90;;
22064;SDS011;11197;53.110;8.468;2022-08-25T15:29:43;12.02;;;5.10;;
22064;SDS011;11197;53.110;8.468;2022-08-25T15:32:09;9.75;;;4.90;;
22064;SDS011;11197;53.110;8.468;2022-08-25T15:34:36;12.57;;;5.30;;
22064;SDS011;11197;53.110;8.468;2022-08-25T15:37:07;10.50;;;5.40;;
22064;SDS011;11197;53.110;8.468;2022-08-25T15:39:36;10.07;;;5.03;;
22064;SDS011;11197;53.110;8.468;2022-08-25T15:42:03;10.77;;;5.10;;
22064;SDS011;11197;53.110;8.468;2022-08-25T15:44:30;10.05;;;5.30;;
22064;SDS011;11197;53.110;8.468;2022-08-25T15:46:59;7.93;;;5.00;;
22064;SDS011;11197;53.110;8.468;2022-08-25T15:49:27;9.07;;;4.88;;
22064;SDS011;11197;53.110;8.468;2022-08-25T15:51:53;9.55;;;4.95;;
22064;SDS011;11197;53.110;8.468;2022-08-25T15:54:21;11.75;;;5.15;;
22064;SDS011;11197;53.110;8.468;2022-08-25T15:56:49;11.70;;;8.17;;
22064;SDS011;11197;53.110;8.468;2022-08-25T15:59:16;9.82;;;5.82;;
22064;SDS011;11197;53.110;8.468;2022-08-25T16:01:43;10.95;;;5.50;;
22064;SDS011;11197;53.110;8.468;2022-08-25T16:04:10;9.20;;;5.15;;
22064;SDS011;11197;53.110;8.468;2022-08-25T16:06:37;6.75;;;5.03;;
22064;SDS011;11197;53.110;8.468;2022-08-25T16:09:03;9.60;;;5.10;;
22064;SDS011;11197;53.110;8.468;2022-08-25T16:11:30;13.25;;;5.50;;
22064;SDS011;11197;53.110;8.468;2022-08-25T16:13:59;12.32;;;5.75;;
22064;SDS011;11197;53.110;8.468;2022-08-25T16:16:27;12.35;;;5.38;;
22064;SDS011;11197;53.110;8.468;2022-08-25T16:18:54;11.15;;;5.30;;
22064;SDS011;11197;53.110;8.468;2022-08-25T16:21:22;11.05;;;5.72;;
22064;SDS011;11197;53.110;8.468;2022-08-25T16:23:58;8.73;;;5.43;;
22064;SDS011;11197;53.110;8.468;2022-08-25T16:26:26;13.65;;;5.53;;
22064;SDS011;11197;53.110;8.468;2022-08-25T16:28:52;14.00;;;5.32;;
22064;SDS011;11197;53.110;8.468;2022-08-25T16:31:19;9.90;;;5.72;;
22064;SDS011;11197;53.110;8.468;2022-08-25T16:33:45;10.93;;;6.05;;
22064;SDS011;11197;53.110;8.468;2022-08-25T16:36:16;11.70;;;5.30;;
22064;SDS011;11197;53.110;8.468;2022-08-25T16:38:46;8.90;;;5.00;;
22064;SDS011;11197;53.110;8.468;2022-08-25T16:41:13;8.27;;;5.20;;
22064;SDS011;11197;53.110;8.468;2022-08-25T16:43:44;9.98;;;5.20;;
22064;SDS011;11197;53.110;8.468;2022-08-25T16:46:12;10.32;;;5.22;;
22064;SDS011;11197;53.110;8.468;2022-08-25T16:48:41;10.65;;;5.38;;
22064;SDS011;11197;53.110;8.468;2022-08-25T16:51:08;10.52;;;5.63;;
22064;SDS011;11197;53.110;8.468;2022-08-25T16:53:37;9.20;;;5.90;;
22064;SDS011;11197;53.110;8.468;2022-08-25T16:56:22;10.32;;;5.25;;
22064;SDS011;11197;53.110;8.468;2022-08-25T16:58:52;9.80;;;5.45;;
22064;SDS011;11197;53.110;8.468;2022-08-25T17:01:20;8.95;;;5.70;;
22064;SDS011;11197;53.110;8.468;2022-08-25T17:03:49;9.15;;;5.32;;
22064;SDS011;11197;53.110;8.468;2022-08-25T17:06:16;11.45;;;5.43;;
22064;SDS011;11197;53.110;8.468;2022-08-25T17:08:42;9.40;;;4.82;;
22064;SDS011;11197;53.110;8.468;2022-08-25T17:11:13;7.88;;;5.30;;
22064;SDS011;11197;53.110;8.468;2022-08-25T17:13:42;7.05;;;5.20;;
22064;SDS011;11197;53.110;8.468;2022-08-25T17:16:10;7.10;;;5.45;;
22064;SDS011;11197;53.110;8.468;2022-08-25T17:18:37;10.88;;;5.75;;
22064;SDS011;11197;53.110;8.468;2022-08-25T17:21:05;9.52;;;5.72;;
22064;SDS011;11197;53.110;8.468;2022-08-25T17:23:33;12.10;;;5.43;;
22064;SDS011;11197;53.110;8.468;2022-08-25T17:26:00;10.45;;;5.43;;